Silver Cloud — C6MQ5 — position and weather

sailwx.info

Track history (hours):
 
Tides and Currents Weather Stations Pressure Air Temp Water Temp Dewpoint Dewpoint Depression Visibility Wind Speed Wind Dir Waves Ship Positions

Silver Cloud

Operator: V Ships Leisure SAM

Last reported at 2015-Aug-29 20:04 UTC. Time now 2015-Aug-30 11:58 UTC.
Position N 51°42' W 006°46'.

Length 155 m; draft 5.6 m.

Type: Passenger vessel. MMSI: 309027000.

Date/timePositionNaut miles runAvg speedWind from/ knotsBaromVisibWave heightAir tempDewpointWater temp
2015-Aug-29 20:04N 51°42' W 006°46'917.7
2015-Aug-29 19:33N 51°51' W 006°50'1817.8
2015-Aug-29 18:33N 52°08' W 006°58'9 8.7
2015-Aug-29 17:34N 52°16' W 006°59'4 4.3
2015-Aug-29 16:33N 52°16' W 007°06'0 0.0
2015-Aug-29 15:33N 52°16' W 007°06'0 0.0
2015-Aug-29 14:27N 52°16' W 007°06'0 0.0
2015-Aug-29 13:33N 52°16' W 007°06'0 0.0
2015-Aug-29 12:30N 52°16' W 007°06'0 0.0
2015-Aug-29 11:33N 52°16' W 007°06'0 0.0
2015-Aug-29 10:33N 52°16' W 007°06'0 0.0
2015-Aug-29 09:33N 52°16' W 007°06'0 0.0
2015-Aug-29 08:33N 52°16' W 007°06'0 0.0
2015-Aug-29 07:33N 52°16' W 007°06'0 0.0
2015-Aug-29 06:27N 52°16' W 007°06'0 0.0
2015-Aug-29 05:33N 52°16' W 007°06'4 4.2
2015-Aug-29 04:33N 52°16' W 006°59'9 8.7
2015-Aug-29 03:34N 52°07' W 006°59'1111.2
2015-Aug-29 02:33N 52°01' W 007°14'1111.2
2015-Aug-29 01:33N 51°55' W 007°30'1111.3
2015-Aug-29 00:33N 51°49' W 007°45'1111.2
2015-Aug-28 23:33N 51°43' W 008°01'10 9.7
2015-Aug-28 22:33N 51°47' W 008°15'5 4.5
2015-Aug-28 21:32N 51°51' W 008°18'0 0.0
2015-Aug-28 20:32N 51°51' W 008°18'0 0.0
2015-Aug-28 19:31N 51°51' W 008°18'0 0.0
2015-Aug-28 18:31N 51°51' W 008°18'0 0.0
2015-Aug-28 17:31N 51°51' W 008°18'0 0.0
2015-Aug-28 16:31N 51°51' W 008°18'0 0.0
2015-Aug-28 15:31N 51°51' W 008°18'0 0.0
2015-Aug-28 14:31N 51°51' W 008°18'0 0.0
2015-Aug-28 13:31N 51°51' W 008°18'0 0.0
2015-Aug-28 12:31N 51°51' W 008°18'0 0.0
2015-Aug-28 11:31N 51°51' W 008°18'0 0.0
2015-Aug-28 10:31N 51°51' W 008°18'0 0.0
2015-Aug-28 09:31N 51°51' W 008°18'0 0.0
2015-Aug-28 08:31N 51°51' W 008°18'0 0.0
2015-Aug-28 07:31N 51°51' W 008°18'0 0.0
2015-Aug-28 06:32N 51°51' W 008°18'5 5.5
2015-Aug-28 05:34N 51°46' W 008°15'1211.7
2015-Aug-28 04:34N 51°44' W 007°57'1414.0
2015-Aug-28 03:33N 51°48' W 007°35'1413.7
2015-Aug-28 02:33N 51°52' W 007°14'1313.5
2015-Aug-28 01:34N 51°56' W 006°53'1413.6
2015-Aug-28 00:33N 52°00' W 006°32'1413.7
2015-Aug-27 23:33N 52°07' W 006°13'1313.3
2015-Aug-27 22:33N 52°18' W 006°00'1514.8
2015-Aug-27 21:33N 52°30' W 005°46'67 1.6
2015-Aug-26 04:12N 53°36' W 005°51'1014.4
2015-Aug-26 03:31N 53°45' W 005°45'1414.3
2015-Aug-26 02:33N 53°58' W 005°36'1414.3
2015-Aug-26 01:33N 54°12' W 005°28'1414.4
2015-Aug-26 00:33N 54°25' W 005°19'1414.4
2015-Aug-25 23:33N 54°39' W 005°24'1212.0
2015-Aug-25 22:33N 54°42' W 005°44'7 0.9
2015-Aug-25 14:32N 54°37' W 005°54'0 0.0
2015-Aug-25 06:29N 54°37' W 005°54'8 8.3
2015-Aug-25 05:33N 54°42' W 005°44'9 9.2
2015-Aug-25 04:33N 54°50' W 005°36'10 9.7
2015-Aug-25 03:33N 54°60' W 005°38'1410.6
2015-Aug-25 02:14N 55°11' W 005°53'710.6
2015-Aug-25 01:33N 55°17' W 005°60'1110.7
2015-Aug-25 00:33N 55°22' W 006°16'1110.7
2015-Aug-24 23:33N 55°31' W 006°27'1110.7
2015-Aug-24 22:33N 55°39' W 006°39'1010.5
2015-Aug-24 21:33N 55°48' W 006°49'1110.5
2015-Aug-24 20:33N 55°56' W 007°00'183 9.1
2015-Aug-24 00:33N 58°42' W 004°37'1312.8
2015-Aug-23 23:33N 58°43' W 004°12'1312.8
2015-Aug-23 22:33N 58°43' W 003°48'1312.7
2015-Aug-23 21:33N 58°43' W 003°23'1313.0
2015-Aug-23 20:34N 58°43' W 002°58'1312.9
2015-Aug-23 19:33N 58°52' W 002°40'10 9.7
2015-Aug-23 18:33N 59°00' W 002°48'5 5.4
2015-Aug-23 17:32N 58°60' W 002°58'0 0.0
2015-Aug-23 16:29N 58°60' W 002°58'0 0.0
2015-Aug-23 15:32N 58°60' W 002°58'0 0.0
2015-Aug-23 14:32N 58°60' W 002°58'0 0.0
2015-Aug-23 13:29N 58°60' W 002°58'0 0.0
2015-Aug-23 12:32N 58°60' W 002°58'0 0.0
2015-Aug-23 11:32N 58°60' W 002°58'0 0.0
2015-Aug-23 10:32N 58°60' W 002°58'0 0.0
2015-Aug-23 09:29N 58°60' W 002°58'0 0.0
2015-Aug-23 08:32N 58°60' W 002°58'0 0.0
2015-Aug-23 07:32N 58°60' W 002°58'0 0.0
2015-Aug-23 06:33N 58°60' W 002°58'7 7.3
2015-Aug-23 05:33N 59°00' W 002°44'1111.4
2015-Aug-23 04:33N 58°49' W 002°39'1414.1
2015-Aug-23 03:33N 58°35' W 002°45'53 2.1
2015-Aug-22 02:33N 57°46' W 002°10'1514.8
2015-Aug-22 01:33N 57°41' W 001°44'1514.8
2015-Aug-22 00:33N 57°27' W 001°38'2015.8
2015-Aug-21 23:18N 57°08' W 001°50'4516.4
2015-Aug-21 20:33N 56°28' W 002°26'1616.0
2015-Aug-21 19:33N 56°13' W 002°36'1716.5
2015-Aug-21 18:33N 56°03' W 002°60'7 7.1
2015-Aug-21 17:32N 55°59' W 003°11'0 0.4
2015-Aug-21 16:32N 55°59' W 003°11'0 0.0
2015-Aug-21 15:32N 55°59' W 003°11'0 0.0
2015-Aug-21 14:32N 55°59' W 003°11'0 0.0
2015-Aug-21 13:23N 55°59' W 003°11'0 0.0
2015-Aug-21 12:23N 55°59' W 003°11'0 0.0
2015-Aug-21 11:26N 55°59' W 003°11'0 0.0
2015-Aug-21 10:26N 55°59' W 003°11'0 0.0
2015-Aug-21 09:26N 55°59' W 003°11'0 0.0
2015-Aug-21 08:26N 55°59' W 003°11'0 0.0
2015-Aug-21 07:26N 55°59' W 003°11'0 0.0
2015-Aug-21 06:29N 55°59' W 003°11'0 0.0
2015-Aug-21 05:29N 55°59' W 003°11'0 0.0
2015-Aug-21 04:29N 55°59' W 003°11'0 0.0
2015-Aug-21 03:29N 55°59' W 003°11'0 0.0
2015-Aug-21 02:29N 55°59' W 003°11'0 0.0
2015-Aug-21 01:32N 55°59' W 003°11'0 0.0
2015-Aug-21 00:32N 55°59' W 003°11'0 0.0
2015-Aug-20 23:32N 55°59' W 003°11'0 0.0
2015-Aug-20 22:32N 55°59' W 003°11'0 0.0
2015-Aug-20 21:32N 55°59' W 003°11'0 0.0
2015-Aug-20 20:32N 55°59' W 003°11'0 0.0
2015-Aug-20 19:32N 55°59' W 003°11'0 0.0
2015-Aug-20 18:32N 55°59' W 003°11'0 0.0
2015-Aug-20 17:32N 55°59' W 003°11'0 0.0
2015-Aug-20 16:32N 55°59' W 003°11'0 0.0
2015-Aug-20 15:32N 55°59' W 003°11'0 0.0
2015-Aug-20 14:23N 55°59' W 003°11'0 0.0
2015-Aug-20 13:23N 55°59' W 003°11'0 0.0
2015-Aug-20 12:23N 55°59' W 003°11'0 0.0
2015-Aug-20 11:26N 55°59' W 003°11'0 0.4
2015-Aug-20 10:33N 55°59' W 003°11'2 1.6
2015-Aug-20 09:33N 56°01' W 003°09'1211.7
2015-Aug-20 08:33N 56°07' W 002°51'1312.5
2015-Aug-20 07:33N 56°08' W 002°29'1413.8
2015-Aug-20 06:33N 56°02' W 002°06'1514.7
2015-Aug-20 05:32N 55°53' W 001°44'6015.0
2015-Aug-20 01:33N 55°06' W 000°39'1515.2
2015-Aug-20 00:33N 54°53' W 000°25'1515.3
2015-Aug-19 23:33N 54°40' W 000°12'1615.8
2015-Aug-19 22:33N 54°27' E 000°03'1616.4
2015-Aug-19 21:33N 54°13' E 000°17'1616.5
2015-Aug-19 20:33N 53°59' E 000°32'  
Track history (hours):
 
Tides and Currents Weather Stations Pressure Air Temp Water Temp Dewpoint Dewpoint Depression Visibility Wind Speed Wind Dir Waves Ship Positions

Silver Cloud

Operator: V Ships Leisure SAM

Last reported at 2015-Aug-29 20:04 UTC. Time now 2015-Aug-30 11:58 UTC.
Position N 51°42' W 006°46'.

Length 155 m; draft 5.6 m.

Type: Passenger vessel. MMSI: 309027000.

Date/timePositionNaut miles runAvg speedWind from/ knotsBaromVisibWave heightAir tempDewpointWater temp
2015-Aug-29 20:04N 51°42' W 006°46'917.7
2015-Aug-29 19:33N 51°51' W 006°50'1817.8
2015-Aug-29 18:33N 52°08' W 006°58'9 8.7
2015-Aug-29 17:34N 52°16' W 006°59'4 4.3
2015-Aug-29 16:33N 52°16' W 007°06'0 0.0
2015-Aug-29 15:33N 52°16' W 007°06'0 0.0
2015-Aug-29 14:27N 52°16' W 007°06'0 0.0
2015-Aug-29 13:33N 52°16' W 007°06'0 0.0
2015-Aug-29 12:30N 52°16' W 007°06'0 0.0
2015-Aug-29 11:33N 52°16' W 007°06'0 0.0
2015-Aug-29 10:33N 52°16' W 007°06'0 0.0
2015-Aug-29 09:33N 52°16' W 007°06'0 0.0
2015-Aug-29 08:33N 52°16' W 007°06'0 0.0
2015-Aug-29 07:33N 52°16' W 007°06'0 0.0
2015-Aug-29 06:27N 52°16' W 007°06'0 0.0
2015-Aug-29 05:33N 52°16' W 007°06'4 4.2
2015-Aug-29 04:33N 52°16' W 006°59'9 8.7
2015-Aug-29 03:34N 52°07' W 006°59'1111.2
2015-Aug-29 02:33N 52°01' W 007°14'1111.2
2015-Aug-29 01:33N 51°55' W 007°30'1111.3
2015-Aug-29 00:33N 51°49' W 007°45'1111.2
2015-Aug-28 23:33N 51°43' W 008°01'10 9.7
2015-Aug-28 22:33N 51°47' W 008°15'5 4.5
2015-Aug-28 21:32N 51°51' W 008°18'0 0.0
2015-Aug-28 20:32N 51°51' W 008°18'0 0.0
2015-Aug-28 19:31N 51°51' W 008°18'0 0.0
2015-Aug-28 18:31N 51°51' W 008°18'0 0.0
2015-Aug-28 17:31N 51°51' W 008°18'0 0.0
2015-Aug-28 16:31N 51°51' W 008°18'0 0.0
2015-Aug-28 15:31N 51°51' W 008°18'0 0.0
2015-Aug-28 14:31N 51°51' W 008°18'0 0.0
2015-Aug-28 13:31N 51°51' W 008°18'0 0.0
2015-Aug-28 12:31N 51°51' W 008°18'0 0.0
2015-Aug-28 11:31N 51°51' W 008°18'0 0.0
2015-Aug-28 10:31N 51°51' W 008°18'0 0.0
2015-Aug-28 09:31N 51°51' W 008°18'0 0.0
2015-Aug-28 08:31N 51°51' W 008°18'0 0.0
2015-Aug-28 07:31N 51°51' W 008°18'0 0.0
2015-Aug-28 06:32N 51°51' W 008°18'5 5.5
2015-Aug-28 05:34N 51°46' W 008°15'1211.7
2015-Aug-28 04:34N 51°44' W 007°57'1414.0
2015-Aug-28 03:33N 51°48' W 007°35'1413.7
2015-Aug-28 02:33N 51°52' W 007°14'1313.5
2015-Aug-28 01:34N 51°56' W 006°53'1413.6
2015-Aug-28 00:33N 52°00' W 006°32'1413.7
2015-Aug-27 23:33N 52°07' W 006°13'1313.3
2015-Aug-27 22:33N 52°18' W 006°00'1514.8
2015-Aug-27 21:33N 52°30' W 005°46'67 1.6
2015-Aug-26 04:12N 53°36' W 005°51'1014.4
2015-Aug-26 03:31N 53°45' W 005°45'1414.3
2015-Aug-26 02:33N 53°58' W 005°36'1414.3
2015-Aug-26 01:33N 54°12' W 005°28'1414.4
2015-Aug-26 00:33N 54°25' W 005°19'1414.4
2015-Aug-25 23:33N 54°39' W 005°24'1212.0
2015-Aug-25 22:33N 54°42' W 005°44'7 0.9
2015-Aug-25 14:32N 54°37' W 005°54'0 0.0
2015-Aug-25 06:29N 54°37' W 005°54'8 8.3
2015-Aug-25 05:33N 54°42' W 005°44'9 9.2
2015-Aug-25 04:33N 54°50' W 005°36'10 9.7
2015-Aug-25 03:33N 54°60' W 005°38'1410.6
2015-Aug-25 02:14N 55°11' W 005°53'710.6
2015-Aug-25 01:33N 55°17' W 005°60'1110.7
2015-Aug-25 00:33N 55°22' W 006°16'1110.7
2015-Aug-24 23:33N 55°31' W 006°27'1110.7
2015-Aug-24 22:33N 55°39' W 006°39'1010.5
2015-Aug-24 21:33N 55°48' W 006°49'1110.5
2015-Aug-24 20:33N 55°56' W 007°00'183 9.1
2015-Aug-24 00:33N 58°42' W 004°37'1312.8
2015-Aug-23 23:33N 58°43' W 004°12'1312.8
2015-Aug-23 22:33N 58°43' W 003°48'1312.7
2015-Aug-23 21:33N 58°43' W 003°23'1313.0
2015-Aug-23 20:34N 58°43' W 002°58'1312.9
2015-Aug-23 19:33N 58°52' W 002°40'10 9.7
2015-Aug-23 18:33N 59°00' W 002°48'5 5.4
2015-Aug-23 17:32N 58°60' W 002°58'0 0.0
2015-Aug-23 16:29N 58°60' W 002°58'0 0.0
2015-Aug-23 15:32N 58°60' W 002°58'0 0.0
2015-Aug-23 14:32N 58°60' W 002°58'0 0.0
2015-Aug-23 13:29N 58°60' W 002°58'0 0.0
2015-Aug-23 12:32N 58°60' W 002°58'0 0.0
2015-Aug-23 11:32N 58°60' W 002°58'0 0.0
2015-Aug-23 10:32N 58°60' W 002°58'0 0.0
2015-Aug-23 09:29N 58°60' W 002°58'0 0.0
2015-Aug-23 08:32N 58°60' W 002°58'0 0.0
2015-Aug-23 07:32N 58°60' W 002°58'0 0.0
2015-Aug-23 06:33N 58°60' W 002°58'7 7.3
2015-Aug-23 05:33N 59°00' W 002°44'1111.4
2015-Aug-23 04:33N 58°49' W 002°39'1414.1
2015-Aug-23 03:33N 58°35' W 002°45'53 2.1
2015-Aug-22 02:33N 57°46' W 002°10'1514.8
2015-Aug-22 01:33N 57°41' W 001°44'1514.8
2015-Aug-22 00:33N 57°27' W 001°38'2015.8
2015-Aug-21 23:18N 57°08' W 001°50'4516.4
2015-Aug-21 20:33N 56°28' W 002°26'1616.0
2015-Aug-21 19:33N 56°13' W 002°36'1716.5
2015-Aug-21 18:33N 56°03' W 002°60'7 7.1
2015-Aug-21 17:32N 55°59' W 003°11'0 0.4
2015-Aug-21 16:32N 55°59' W 003°11'0 0.0
2015-Aug-21 15:32N 55°59' W 003°11'0 0.0
2015-Aug-21 14:32N 55°59' W 003°11'0 0.0
2015-Aug-21 13:23N 55°59' W 003°11'0 0.0
2015-Aug-21 12:23N 55°59' W 003°11'0 0.0
2015-Aug-21 11:26N 55°59' W 003°11'0 0.0
2015-Aug-21 10:26N 55°59' W 003°11'0 0.0
2015-Aug-21 09:26N 55°59' W 003°11'0 0.0
2015-Aug-21 08:26N 55°59' W 003°11'0 0.0
2015-Aug-21 07:26N 55°59' W 003°11'0 0.0
2015-Aug-21 06:29N 55°59' W 003°11'0 0.0
2015-Aug-21 05:29N 55°59' W 003°11'0 0.0
2015-Aug-21 04:29N 55°59' W 003°11'0 0.0
2015-Aug-21 03:29N 55°59' W 003°11'0 0.0
2015-Aug-21 02:29N 55°59' W 003°11'0 0.0
2015-Aug-21 01:32N 55°59' W 003°11'0 0.0
2015-Aug-21 00:32N 55°59' W 003°11'0 0.0
2015-Aug-20 23:32N 55°59' W 003°11'0 0.0
2015-Aug-20 22:32N 55°59' W 003°11'0 0.0
2015-Aug-20 21:32N 55°59' W 003°11'0 0.0
2015-Aug-20 20:32N 55°59' W 003°11'0 0.0
2015-Aug-20 19:32N 55°59' W 003°11'0 0.0
2015-Aug-20 18:32N 55°59' W 003°11'0 0.0
2015-Aug-20 17:32N 55°59' W 003°11'0 0.0
2015-Aug-20 16:32N 55°59' W 003°11'0 0.0
2015-Aug-20 15:32N 55°59' W 003°11'0 0.0
2015-Aug-20 14:23N 55°59' W 003°11'0 0.0
2015-Aug-20 13:23N 55°59' W 003°11'0 0.0
2015-Aug-20 12:23N 55°59' W 003°11'0 0.0
2015-Aug-20 11:26N 55°59' W 003°11'0 0.4
2015-Aug-20 10:33N 55°59' W 003°11'2 1.6
2015-Aug-20 09:33N 56°01' W 003°09'1211.7
2015-Aug-20 08:33N 56°07' W 002°51'1312.5
2015-Aug-20 07:33N 56°08' W 002°29'1413.8
2015-Aug-20 06:33N 56°02' W 002°06'1514.7
2015-Aug-20 05:32N 55°53' W 001°44'6015.0
2015-Aug-20 01:33N 55°06' W 000°39'1515.2
2015-Aug-20 00:33N 54°53' W 000°25'1515.3
2015-Aug-19 23:33N 54°40' W 000°12'1615.8
2015-Aug-19 22:33N 54°27' E 000°03'1616.4
2015-Aug-19 21:33N 54°13' E 000°17'1616.5
2015-Aug-19 20:33N 53°59' E 000°32'  

Dump ship's entire track history